Airfield :
LOGIN :

Register | Disclaimer

   EN    FR    IT 

 










Legend :    VFR   Marginal VFR   IFR   Intensive IFR   Very Intensive IFR
Visi :
Ceiling :
>= 8 km
>= 3000ft
5 to 8 km
1000 to 3000 ft
1500m to 5 km
500 to 1000 ft
800 to 1500m
200 to 500 ft
< 800m
< 200 ft
Symbols :   Thunderstorms  Fog  Heavy snow  Heavy precipitations  Wind > 20 kt
SIGMETs :     Misc.  Thunderstorms  Icing  Turbulence  Mountain Waves  Volcanic Ashes






- Airport Elevation : 202 ft
- IATA code : LGW


EGKK - London Gatwick

CURRENT METAR :
  • 210350Z 22005KT 180V240 CAVOK 04/01 Q1024

EXPIRED METARs :
  • 210320Z 20004KT CAVOK 03/01 Q1024
  • 210250Z 22005KT CAVOK 03/01 Q1024
  • 210220Z 23006KT CAVOK 04/01 Q1024
  • 210150Z 22006KT CAVOK 03/01 Q1024
  • 210120Z 23007KT CAVOK 03/00 Q1024

TAF AMD TAF EGKK
Valid from the 21 at 03:00 until the 22 at 06:00 UTC


210340Z 2103/2206 23008KT 9999 FEW035
BECMG 2109/2113 23018G30KT
TEMPO 2121/2124 BKN012
BECMG 2200/2203 BKN012
PROB40
TEMPO 2202/2206 7000 -RA



MET'MAP, your aeronautical weather chart ! - Copyright ORBIFLY December 2007 - Disclaimer

ORBIFLY MET'MAP TEAM :

Programming & Development : Alexandra Zaïnal
Concept & original design : Baudouin d'Aumeries
Assistance for programming : Marc-Olivier Méhu
Technical & hardware support : Manuel Goepfert

Contact : metmap@orbifly.com




SOURCES & CREDITS :

   NOAA